Time;durP1;ratioP1;P1;durP2;ratioP2;P2;SDS_P1;SDS_P2;PMS_P1;PMS_P2;Temp;Humidity;BMP_temperature;BMP_pressure;BME280_temperature;BME280_humidity;BME280_pressure;Samples;Min_cycle;Max_cycle;Signal;HPM_P1;HPM_P2
2022/12/28 00:01:45;;;;;;;4.82;1.40;;;;;;;;;;5091856;28;20488;-89
2022/12/28 00:04:14;;;;;;;4.65;1.52;;;;;;;;;;5093873;28;20052;-89
2022/12/28 00:06:41;;;;;;;4.88;1.27;;;;;;;;;;5093723;28;20054;-90
2022/12/28 00:09:11;;;;;;;5.47;1.15;;;;;;;;;;5093634;28;20058;-89
2022/12/28 00:11:39;;;;;;;5.65;1.30;;;;;;;;;;5093827;28;20052;-89
2022/12/28 00:14:06;;;;;;;4.18;1.52;;;;;;;;;;5093695;28;20043;-89
2022/12/28 00:16:34;;;;;;;2.92;1.20;;;;;;;;;;5093029;28;20420;-89
2022/12/28 00:19:03;;;;;;;4.63;1.27;;;;;;;;;;5093304;28;20407;-89
2022/12/28 00:21:31;;;;;;;5.75;1.45;;;;;;;;;;5093696;28;20429;-89
2022/12/28 00:23:59;;;;;;;6.75;1.65;;;;;;;;;;5093660;28;20056;-90
2022/12/28 00:26:28;;;;;;;5.25;1.67;;;;;;;;;;5093379;28;20048;-89
2022/12/28 00:28:55;;;;;;;6.38;1.85;;;;;;;;;;5093214;28;20052;-89
2022/12/28 00:31:30;;;;;;;4.68;2.15;;;;;;;;;;5093198;28;20044;-89
2022/12/28 00:33:58;;;;;;;6.00;1.60;;;;;;;;;;5093252;28;20399;-89
2022/12/28 00:36:25;;;;;;;4.28;2.25;;;;;;;;;;5093074;28;20052;-90
2022/12/28 00:39:12;;;;;;;9.10;2.22;;;;;;;;;;5093099;28;20500;-91
2022/12/28 00:41:39;;;;;;;4.75;2.00;;;;;;;;;;5092942;28;20193;-89
2022/12/28 00:44:07;;;;;;;3.65;2.10;;;;;;;;;;5093177;28;20087;-89
2022/12/28 00:46:34;;;;;;;4.95;2.50;;;;;;;;;;5092665;28;20052;-89
2022/12/28 00:49:01;;;;;;;7.95;2.40;;;;;;;;;;5092930;28;20056;-89
2022/12/28 00:51:28;;;;;;;7.32;2.75;;;;;;;;;;5093046;28;20047;-90
2022/12/28 00:53:55;;;;;;;7.38;2.67;;;;;;;;;;5093069;28;20052;-89
2022/12/28 00:56:23;;;;;;;8.13;3.53;;;;;;;;;;5092958;28;20123;-89
2022/12/28 00:58:54;;;;;;;4.43;2.58;;;;;;;;;;5092685;28;20052;-89
2022/12/28 01:01:22;;;;;;;4.05;2.33;;;;;;;;;;5092823;28;20050;-89
2022/12/28 01:03:50;;;;;;;7.35;2.63;;;;;;;;;;5092540;28;20067;-89
2022/12/28 01:06:18;;;;;;;7.65;2.70;;;;;;;;;;5092942;28;20054;-89
2022/12/28 01:08:45;;;;;;;6.65;2.60;;;;;;;;;;5092733;28;20056;-89
2022/12/28 01:11:17;;;;;;;9.35;2.80;;;;;;;;;;5092500;28;20074;-89
2022/12/28 01:13:44;;;;;;;8.65;3.30;;;;;;;;;;5092572;28;20071;-89
2022/12/28 01:16:19;;;;;;;4.85;2.42;;;;;;;;;;5092139;28;20066;-90
2022/12/28 01:18:46;;;;;;;5.38;2.20;;;;;;;;;;5092445;28;20557;-89
2022/12/28 01:21:18;;;;;;;4.65;2.28;;;;;;;;;;5092723;28;20083;-90
2022/12/28 01:23:46;;;;;;;6.68;2.78;;;;;;;;;;5092880;28;20434;-89
2022/12/28 01:26:14;;;;;;;6.30;2.78;;;;;;;;;;5092602;28;20083;-89
2022/12/28 01:28:41;;;;;;;6.32;2.70;;;;;;;;;;5092441;28;20059;-89
2022/12/28 01:31:13;;;;;;;8.40;2.53;;;;;;;;;;5092678;28;20078;-89
2022/12/28 01:33:41;;;;;;;5.90;2.70;;;;;;;;;;5092575;28;20048;-89
2022/12/28 01:36:09;;;;;;;4.57;2.42;;;;;;;;;;5092490;28;20055;-89
2022/12/28 01:38:36;;;;;;;5.05;2.45;;;;;;;;;;5092316;28;20508;-89
2022/12/28 01:41:06;;;;;;;4.85;2.00;;;;;;;;;;5092611;28;20060;-89
2022/12/28 01:43:38;;;;;;;6.60;2.38;;;;;;;;;;5092750;28;20052;-89
2022/12/28 01:46:07;;;;;;;4.97;2.70;;;;;;;;;;5092511;28;20052;-89
2022/12/28 01:48:36;;;;;;;6.80;2.42;;;;;;;;;;5092335;28;20134;-89
2022/12/28 01:51:03;;;;;;;5.40;2.35;;;;;;;;;;5092485;28;20051;-89
2022/12/28 01:53:31;;;;;;;4.78;2.30;;;;;;;;;;5092403;28;20082;-89
2022/12/28 01:55:58;;;;;;;5.93;2.60;;;;;;;;;;5092367;28;20054;-89
2022/12/28 01:58:27;;;;;;;6.05;3.00;;;;;;;;;;5092311;28;20074;-89
2022/12/28 02:00:54;;;;;;;4.35;3.33;;;;;;;;;;5092479;28;20058;-89
2022/12/28 02:03:23;;;;;;;6.43;3.85;;;;;;;;;;5092522;28;20071;-89
2022/12/28 02:05:52;;;;;;;6.53;3.13;;;;;;;;;;5092046;28;20412;-89
2022/12/28 02:08:29;;;;;;;5.13;2.90;;;;;;;;;;5092474;28;20056;-88
2022/12/28 02:10:56;;;;;;;5.10;2.65;;;;;;;;;;5092226;28;20055;-88
2022/12/28 02:13:24;;;;;;;8.10;2.75;;;;;;;;;;5092353;28;20054;-89
2022/12/28 02:15:51;;;;;;;3.55;2.28;;;;;;;;;;5092011;28;20063;-89
2022/12/28 02:18:19;;;;;;;4.45;2.10;;;;;;;;;;5092067;28;20087;-89
2022/12/28 02:21:02;;;;;;;5.22;2.42;;;;;;;;;;5092079;28;20138;-89
2022/12/28 02:23:40;;;;;;;5.77;2.33;;;;;;;;;;5093470;28;20054;-90
2022/12/28 02:26:07;;;;;;;6.78;2.20;;;;;;;;;;5095906;28;20108;-89
2022/12/28 02:28:53;;;;;;;7.55;2.60;;;;;;;;;;5095758;28;20052;-89
2022/12/28 02:31:24;;;;;;;5.82;2.10;;;;;;;;;;5095838;28;20074;-89
2022/12/28 02:34:11;;;;;;;5.43;2.30;;;;;;;;;;5095426;28;20044;-90
2022/12/28 02:36:41;;;;;;;9.57;2.40;;;;;;;;;;5095267;28;20056;-89
2022/12/28 02:39:11;;;;;;;7.18;2.50;;;;;;;;;;5095467;28;20048;-89
2022/12/28 02:41:39;;;;;;;4.95;1.95;;;;;;;;;;5095210;28;20534;-89
2022/12/28 02:44:07;;;;;;;5.40;1.83;;;;;;;;;;5095422;28;20407;-90
2022/12/28 02:52:26;;;;;;;5.97;2.40;;;;;;;;;;5096379;28;20071;-89
2022/12/28 02:58:01;;;;;;;11.65;3.35;;;;;;;;;;5096146;28;20068;-89
2022/12/28 03:00:32;;;;;;;9.73;2.92;;;;;;;;;;5095023;28;20044;-90
2022/12/28 03:03:12;;;;;;;4.78;2.58;;;;;;;;;;5095120;28;20048;-89
2022/12/28 03:08:43;;;;;;;5.57;2.08;;;;;;;;;;5095875;28;20131;-90
2022/12/28 03:11:11;;;;;;;5.35;2.42;;;;;;;;;;5095236;28;20484;-89
2022/12/28 03:13:46;;;;;;;5.80;2.50;;;;;;;;;;5094758;28;20071;-90
2022/12/28 03:16:21;;;;;;;4.68;2.67;;;;;;;;;;5094500;28;20138;-90
2022/12/28 03:32:50;;;;;;;3.70;2.55;;;;;;;;;;5096169;28;20048;-89
2022/12/28 03:35:19;;;;;;;6.55;2.67;;;;;;;;;;5094416;28;20139;-89
2022/12/28 03:37:53;;;;;;;4.13;2.47;;;;;;;;;;5094329;28;20126;-89
2022/12/28 03:40:39;;;;;;;6.03;2.60;;;;;;;;;;5094252;28;20066;-89
2022/12/28 03:46:14;;;;;;;3.65;2.55;;;;;;;;;;5095086;28;20343;-89
2022/12/28 03:48:42;;;;;;;4.97;2.53;;;;;;;;;;5094283;28;20435;-89
2022/12/28 03:51:11;;;;;;;5.18;2.65;;;;;;;;;;5094052;28;20070;-89
2022/12/28 03:53:40;;;;;;;3.67;2.63;;;;;;;;;;5094143;28;20408;-90
2022/12/28 03:56:12;;;;;;;5.07;2.53;;;;;;;;;;5093828;28;20050;-89
2022/12/28 03:58:40;;;;;;;6.75;2.88;;;;;;;;;;5093911;28;20047;-89
2022/12/28 04:01:07;;;;;;;3.88;2.80;;;;;;;;;;5094002;28;20506;-90
2022/12/28 04:03:35;;;;;;;4.40;2.63;;;;;;;;;;5093647;28;20101;-89
2022/12/28 04:06:02;;;;;;;4.25;2.55;;;;;;;;;;5093869;28;20121;-90
2022/12/28 04:08:31;;;;;;;3.67;2.38;;;;;;;;;;5093838;28;20130;-89
2022/12/28 04:10:58;;;;;;;5.85;2.88;;;;;;;;;;5093721;28;20050;-90
2022/12/28 04:13:30;;;;;;;6.13;2.72;;;;;;;;;;5093850;28;20458;-89
2022/12/28 04:15:57;;;;;;;4.22;2.58;;;;;;;;;;5093315;28;20400;-90
2022/12/28 04:18:24;;;;;;;3.83;2.83;;;;;;;;;;5093619;28;20480;-89
2022/12/28 04:20:51;;;;;;;4.20;2.60;;;;;;;;;;5093326;28;20047;-90
2022/12/28 04:23:19;;;;;;;4.93;2.70;;;;;;;;;;5093338;28;20046;-90
2022/12/28 04:25:58;;;;;;;4.57;2.80;;;;;;;;;;5093451;28;20063;-90
2022/12/28 04:28:25;;;;;;;5.88;2.53;;;;;;;;;;5093434;28;20058;-89
2022/12/28 04:30:52;;;;;;;6.05;3.22;;;;;;;;;;5093316;28;20142;-89
2022/12/28 04:33:22;;;;;;;3.08;2.58;;;;;;;;;;5093439;28;20541;-90
2022/12/28 04:35:50;;;;;;;4.88;2.58;;;;;;;;;;5076770;28;20044;-90
2022/12/28 04:38:17;;;;;;;5.50;2.88;;;;;;;;;;5093185;28;20056;-90
2022/12/28 04:40:44;;;;;;;4.63;2.30;;;;;;;;;;5092933;28;20420;-90
2022/12/28 04:43:12;;;;;;;4.55;2.33;;;;;;;;;;5093160;28;20108;-89
2022/12/28 04:45:39;;;;;;;5.60;2.67;;;;;;;;;;5092455;28;20056;-89
2022/12/28 04:48:06;;;;;;;5.95;2.92;;;;;;;;;;5093174;28;20044;-90
2022/12/28 04:50:33;;;;;;;7.25;3.03;;;;;;;;;;5092843;28;20055;-90
2022/12/28 04:53:00;;;;;;;6.35;2.58;;;;;;;;;;5092972;28;20503;-90
2022/12/28 04:55:27;;;;;;;2.35;2.15;;;;;;;;;;5092864;28;20052;-88
2022/12/28 04:57:59;;;;;;;4.82;2.90;;;;;;;;;;5092828;28;20047;-89
2022/12/28 05:00:26;;;;;;;11.00;3.10;;;;;;;;;;5092909;28;20068;-90
2022/12/28 05:02:54;;;;;;;6.55;3.03;;;;;;;;;;5092804;28;20134;-89
2022/12/28 05:05:21;;;;;;;6.18;3.55;;;;;;;;;;5092873;28;20052;-89
2022/12/28 05:07:48;;;;;;;4.63;2.80;;;;;;;;;;5092676;28;20048;-90
2022/12/28 05:10:15;;;;;;;4.82;3.15;;;;;;;;;;5092653;28;20044;-89
2022/12/28 05:12:42;;;;;;;3.90;2.65;;;;;;;;;;5092507;28;20050;-88
2022/12/28 05:15:10;;;;;;;3.00;2.78;;;;;;;;;;5092654;28;20556;-90
2022/12/28 05:17:37;;;;;;;3.65;2.92;;;;;;;;;;5090943;28;20071;-89
2022/12/28 05:20:04;;;;;;;2.90;2.70;;;;;;;;;;5091396;28;20048;-89
2022/12/28 05:22:32;;;;;;;3.78;2.88;;;;;;;;;;5092527;28;20052;-89
2022/12/28 05:25:06;;;;;;;4.57;2.97;;;;;;;;;;5092680;28;20503;-90
2022/12/28 05:27:34;;;;;;;4.20;3.10;;;;;;;;;;5092470;28;20063;-89
2022/12/28 05:30:01;;;;;;;6.80;3.33;;;;;;;;;;5092582;28;20143;-89
2022/12/28 05:32:28;;;;;;;4.80;3.10;;;;;;;;;;5091795;28;20056;-88
2022/12/28 05:34:55;;;;;;;3.40;3.17;;;;;;;;;;5092217;28;20067;-90
2022/12/28 05:37:22;;;;;;;5.32;3.58;;;;;;;;;;5092419;28;20056;-89
2022/12/28 05:39:50;;;;;;;3.38;2.97;;;;;;;;;;5092340;28;20052;-90
2022/12/28 05:42:17;;;;;;;6.05;2.97;;;;;;;;;;5092490;28;20048;-89
2022/12/28 05:44:44;;;;;;;3.55;3.25;;;;;;;;;;5092545;28;20059;-89
2022/12/28 05:47:12;;;;;;;3.78;2.80;;;;;;;;;;5092289;28;20419;-90
2022/12/28 05:49:39;;;;;;;5.38;3.22;;;;;;;;;;5092484;28;20048;-88
2022/12/28 05:52:07;;;;;;;3.58;3.28;;;;;;;;;;5092404;28;20078;-89
2022/12/28 05:54:34;;;;;;;6.80;3.60;;;;;;;;;;5092323;28;20048;-90
2022/12/28 05:57:01;;;;;;;3.40;3.17;;;;;;;;;;5092516;28;20118;-90
2022/12/28 05:59:28;;;;;;;3.17;2.88;;;;;;;;;;5095622;28;20044;-90
2022/12/28 06:01:55;;;;;;;5.68;2.97;;;;;;;;;;5096389;28;20494;-89
2022/12/28 06:04:24;;;;;;;5.53;3.17;;;;;;;;;;5096360;28;20040;-89
2022/12/28 06:06:53;;;;;;;3.65;2.70;;;;;;;;;;5096335;28;20058;-90
2022/12/28 06:09:20;;;;;;;5.05;2.80;;;;;;;;;;5096378;28;20604;-89
2022/12/28 06:11:47;;;;;;;6.22;2.88;;;;;;;;;;5096329;28;20055;-89
2022/12/28 06:14:14;;;;;;;4.60;2.50;;;;;;;;;;5096419;28;20048;-90
2022/12/28 06:16:42;;;;;;;4.57;2.53;;;;;;;;;;5095737;28;20060;-89
2022/12/28 06:19:11;;;;;;;3.42;2.35;;;;;;;;;;5095992;28;20546;-90
2022/12/28 06:21:38;;;;;;;6.35;3.00;;;;;;;;;;5095931;28;20135;-89
2022/12/28 06:24:06;;;;;;;8.07;2.78;;;;;;;;;;5095808;28;20048;-90
2022/12/28 06:26:35;;;;;;;2.97;2.10;;;;;;;;;;5095735;28;20086;-90
2022/12/28 06:29:02;;;;;;;2.90;2.60;;;;;;;;;;5095871;28;20056;-88
2022/12/28 06:31:31;;;;;;;2.70;2.50;;;;;;;;;;5095395;28;20056;-89
2022/12/28 06:33:59;;;;;;;3.35;3.05;;;;;;;;;;5095742;28;20054;-89
2022/12/28 06:36:28;;;;;;;2.72;2.10;;;;;;;;;;5095466;28;20051;-90
2022/12/28 06:38:57;;;;;;;4.68;2.38;;;;;;;;;;5095691;28;20055;-90
2022/12/28 06:41:24;;;;;;;4.50;2.35;;;;;;;;;;5095187;28;20048;-89
2022/12/28 06:43:51;;;;;;;2.47;2.25;;;;;;;;;;5095599;28;20389;-89
2022/12/28 06:46:19;;;;;;;4.15;2.17;;;;;;;;;;5095245;28;20415;-89
2022/12/28 06:48:47;;;;;;;3.55;2.67;;;;;;;;;;5095245;28;20075;-89
2022/12/28 06:51:15;;;;;;;5.40;2.42;;;;;;;;;;5094462;28;20046;-90
2022/12/28 06:53:43;;;;;;;5.57;2.60;;;;;;;;;;5095293;28;20504;-90
2022/12/28 06:56:15;;;;;;;3.58;2.10;;;;;;;;;;5095210;28;20051;-90
2022/12/28 06:58:43;;;;;;;5.88;2.83;;;;;;;;;;5095126;28;20072;-89
2022/12/28 07:01:12;;;;;;;3.63;2.83;;;;;;;;;;5094839;28;20605;-90
2022/12/28 07:03:40;;;;;;;4.00;3.15;;;;;;;;;;5095215;28;20135;-90
2022/12/28 07:06:07;;;;;;;6.68;3.42;;;;;;;;;;5095227;28;20078;-89
2022/12/28 07:08:35;;;;;;;4.43;3.20;;;;;;;;;;5094027;28;20040;-90
2022/12/28 07:11:03;;;;;;;3.55;2.28;;;;;;;;;;5094800;28;20062;-90
2022/12/28 07:13:31;;;;;;;3.97;2.60;;;;;;;;;;5095007;28;20059;-90
2022/12/28 07:16:01;;;;;;;4.18;2.72;;;;;;;;;;5094605;28;20059;-89
2022/12/28 07:18:28;;;;;;;6.47;2.92;;;;;;;;;;5094749;28;20131;-89
2022/12/28 07:21:00;;;;;;;3.50;2.30;;;;;;;;;;5094676;28;20052;-89
2022/12/28 07:23:29;;;;;;;4.53;2.80;;;;;;;;;;5094865;28;20139;-89
2022/12/28 07:26:04;;;;;;;4.78;2.78;;;;;;;;;;5094607;28;20058;-90
2022/12/28 07:28:31;;;;;;;3.90;2.58;;;;;;;;;;5094506;28;20109;-89
2022/12/28 07:31:04;;;;;;;2.60;2.40;;;;;;;;;;5094609;28;20058;-89
2022/12/28 07:33:31;;;;;;;2.80;2.60;;;;;;;;;;5094689;28;20040;-90
2022/12/28 07:35:59;;;;;;;2.80;2.20;;;;;;;;;;5094337;28;20071;-90
2022/12/28 07:38:26;;;;;;;2.60;2.40;;;;;;;;;;5094407;28;20058;-89
2022/12/28 07:41:00;;;;;;;2.50;2.30;;;;;;;;;;5094164;28;20480;-88
2022/12/28 07:43:28;;;;;;;6.53;2.55;;;;;;;;;;5094487;28;20044;-89
2022/12/28 07:46:00;;;;;;;5.72;2.65;;;;;;;;;;5094308;28;20060;-89
2022/12/28 07:48:28;;;;;;;5.55;4.13;;;;;;;;;;5094218;28;20048;-88
2022/12/28 07:50:55;;;;;;;5.68;4.93;;;;;;;;;;5093997;28;20063;-87
2022/12/28 07:53:23;;;;;;;4.03;3.25;;;;;;;;;;5094123;28;20134;-89
2022/12/28 07:55:57;;;;;;;5.13;3.05;;;;;;;;;;5094007;28;20106;-90
2022/12/28 07:58:24;;;;;;;5.10;2.65;;;;;;;;;;5094154;28;20047;-89
2022/12/28 08:00:52;;;;;;;3.03;2.55;;;;;;;;;;5093841;28;20052;-90
2022/12/28 08:03:19;;;;;;;3.90;2.22;;;;;;;;;;5093864;28;20548;-89
2022/12/28 08:05:46;;;;;;;3.13;2.42;;;;;;;;;;5092504;28;20607;-90
2022/12/28 08:08:14;;;;;;;3.42;2.55;;;;;;;;;;5093722;28;20386;-88
2022/12/28 08:10:41;;;;;;;3.40;2.20;;;;;;;;;;5093880;28;20428;-89
2022/12/28 08:13:08;;;;;;;4.70;2.38;;;;;;;;;;5093708;28;20508;-89
2022/12/28 08:15:35;;;;;;;4.32;2.35;;;;;;;;;;5093155;28;20056;-90
2022/12/28 08:18:02;;;;;;;2.78;2.15;;;;;;;;;;5093479;28;20462;-89
2022/12/28 08:20:30;;;;;;;7.40;3.97;;;;;;;;;;5092743;28;20048;-87
2022/12/28 08:22:58;;;;;;;5.60;2.67;;;;;;;;;;5093535;28;20052;-89
2022/12/28 08:25:25;;;;;;;2.42;2.22;;;;;;;;;;5092419;28;20048;-89
2022/12/28 08:27:52;;;;;;;2.65;2.38;;;;;;;;;;5092909;28;20423;-89
2022/12/28 08:30:19;;;;;;;6.22;1.95;;;;;;;;;;5093378;28;20056;-90
2022/12/28 08:32:46;;;;;;;3.58;2.03;;;;;;;;;;5093310;28;20133;-89
2022/12/28 08:35:14;;;;;;;4.13;2.15;;;;;;;;;;5092687;28;20480;-89
2022/12/28 08:37:41;;;;;;;2.85;1.90;;;;;;;;;;5093131;28;20044;-89
2022/12/28 08:40:08;;;;;;;4.20;1.83;;;;;;;;;;5093394;28;20048;-88
2022/12/28 08:42:36;;;;;;;1.75;1.65;;;;;;;;;;5093219;28;20071;-89
2022/12/28 08:45:03;;;;;;;3.35;1.77;;;;;;;;;;5093106;28;20048;-88
2022/12/28 08:47:30;;;;;;;2.15;1.77;;;;;;;;;;5093354;28;20138;-88
2022/12/28 08:49:57;;;;;;;7.55;3.15;;;;;;;;;;5093604;28;20051;-88
2022/12/28 08:52:25;;;;;;;3.65;2.05;;;;;;;;;;5092947;28;20048;-89
2022/12/28 08:54:52;;;;;;;5.57;1.58;;;;;;;;;;5092842;28;20048;-89
2022/12/28 08:57:19;;;;;;;6.68;2.22;;;;;;;;;;5092472;28;20054;-89
2022/12/28 08:59:46;;;;;;;2.58;1.67;;;;;;;;;;5092940;28;20051;-89
2022/12/28 09:02:14;;;;;;;2.92;1.25;;;;;;;;;;5092922;28;20048;-89
2022/12/28 09:04:41;;;;;;;2.00;1.80;;;;;;;;;;5093055;28;20095;-88
2022/12/28 09:07:08;;;;;;;2.85;1.55;;;;;;;;;;5092992;28;20485;-91
2022/12/28 09:09:35;;;;;;;3.08;1.80;;;;;;;;;;5092961;28;20408;-89
2022/12/28 09:12:03;;;;;;;1.58;1.45;;;;;;;;;;5092905;28;20056;-90
2022/12/28 09:14:30;;;;;;;2.17;1.85;;;;;;;;;;5092716;28;20066;-89
2022/12/28 09:16:57;;;;;;;2.22;1.52;;;;;;;;;;5092632;28;20564;-89
2022/12/28 09:19:25;;;;;;;1.60;1.42;;;;;;;;;;5092562;28;20079;-89
2022/12/28 09:21:54;;;;;;;2.78;1.60;;;;;;;;;;5092386;28;20485;-89
2022/12/28 09:24:21;;;;;;;2.53;1.33;;;;;;;;;;5092674;28;20079;-89
2022/12/28 09:26:51;;;;;;;2.25;1.35;;;;;;;;;;5092539;28;20526;-90
2022/12/28 09:29:18;;;;;;;2.38;1.50;;;;;;;;;;5092847;28;20068;-89
2022/12/28 09:31:45;;;;;;;1.80;1.70;;;;;;;;;;5093424;28;20130;-90
2022/12/28 09:34:13;;;;;;;4.45;1.45;;;;;;;;;;5097190;28;20051;-89
2022/12/28 09:37:00;;;;;;;2.78;1.92;;;;;;;;;;5096347;28;20052;-88
2022/12/28 09:39:28;;;;;;;1.55;1.40;;;;;;;;;;5096847;28;20101;-88
2022/12/28 09:42:14;;;;;;;2.90;1.80;;;;;;;;;;5096612;28;20048;-89
2022/12/28 09:44:49;;;;;;;1.85;1.50;;;;;;;;;;5096814;28;20050;-90
2022/12/28 09:47:20;;;;;;;3.72;1.48;;;;;;;;;;5097438;28;20135;-89
2022/12/28 09:49:47;;;;;;;2.60;1.63;;;;;;;;;;5097127;28;20044;-89
2022/12/28 09:52:14;;;;;;;1.70;1.30;;;;;;;;;;5097499;28;20060;-89
2022/12/28 09:54:41;;;;;;;1.40;1.10;;;;;;;;;;5096990;28;20134;-89
2022/12/28 09:57:15;;;;;;;3.42;1.48;;;;;;;;;;5096988;28;20052;-89
2022/12/28 09:59:43;;;;;;;1.70;1.50;;;;;;;;;;5096443;28;20563;-88
2022/12/28 10:02:18;;;;;;;3.42;1.50;;;;;;;;;;5096528;28;20416;-91
2022/12/28 10:04:47;;;;;;;3.45;1.90;;;;;;;;;;5096449;28;20054;-88
2022/12/28 10:07:15;;;;;;;1.98;1.85;;;;;;;;;;5096951;28;20134;-94
2022/12/28 10:09:42;;;;;;;1.50;1.40;;;;;;;;;;5096355;28;20132;-88
2022/12/28 10:12:36;;;;;;;2.30;1.55;;;;;;;;;;5096258;28;20129;-92
2022/12/28 10:15:05;;;;;;;8.65;4.45;;;;;;;;;;5092421;28;20050;-89
2022/12/28 10:17:33;;;;;;;6.68;4.30;;;;;;;;;;5095976;28;20125;-87
2022/12/28 10:20:00;;;;;;;2.03;1.80;;;;;;;;;;5096130;28;20058;-88
2022/12/28 10:22:33;;;;;;;6.13;4.13;;;;;;;;;;5095678;28;20040;-88
2022/12/28 10:25:00;;;;;;;4.00;1.33;;;;;;;;;;5096100;28;20051;-91
2022/12/28 10:27:31;;;;;;;3.03;1.77;;;;;;;;;;5095881;28;20051;-89
2022/12/28 10:30:00;;;;;;;3.13;1.80;;;;;;;;;;5095644;28;20065;-89
2022/12/28 10:32:47;;;;;;;3.05;1.50;;;;;;;;;;5096453;28;20044;-91
2022/12/28 10:35:21;;;;;;;2.00;1.10;;;;;;;;;;5095760;28;20052;-90
2022/12/28 10:37:49;;;;;;;1.40;1.20;;;;;;;;;;5095751;28;20064;-88
2022/12/28 10:40:25;;;;;;;2.92;1.30;;;;;;;;;;5095654;28;20489;-90
2022/12/28 10:42:53;;;;;;;2.15;1.17;;;;;;;;;;5095464;28;20407;-89
2022/12/28 10:45:20;;;;;;;3.55;1.30;;;;;;;;;;5094917;28;20043;-92
2022/12/28 10:47:49;;;;;;;2.28;1.60;;;;;;;;;;5095168;28;20052;-90
2022/12/28 10:50:35;;;;;;;4.82;1.67;;;;;;;;;;5095838;28;20044;-90
2022/12/28 10:53:04;;;;;;;1.58;1.48;;;;;;;;;;5095852;28;20074;-89
2022/12/28 10:55:32;;;;;;;1.27;1.20;;;;;;;;;;5095512;28;20488;-90
2022/12/28 10:58:14;;;;;;;1.40;1.30;;;;;;;;;;5095473;28;20050;-90
2022/12/28 11:01:05;;;;;;;1.73;1.38;;;;;;;;;;5095304;28;20048;-90
2022/12/28 11:03:34;;;;;;;2.60;1.27;;;;;;;;;;5095424;28;20052;-90
2022/12/28 11:06:08;;;;;;;3.08;1.95;;;;;;;;;;5095086;28;20400;-91
2022/12/28 11:08:36;;;;;;;1.92;1.10;;;;;;;;;;5095361;28;20054;-91
2022/12/28 11:11:04;;;;;;;3.60;1.10;;;;;;;;;;5095219;28;20048;-90
2022/12/28 11:13:31;;;;;;;3.38;1.42;;;;;;;;;;5095395;28;20557;-90
2022/12/28 11:15:58;;;;;;;3.03;1.20;;;;;;;;;;5094757;28;20051;-90
2022/12/28 11:18:26;;;;;;;1.63;1.20;;;;;;;;;;5094952;28;20044;-90
2022/12/28 11:20:59;;;;;;;2.15;1.23;;;;;;;;;;5095650;28;20102;-90
2022/12/28 11:23:30;;;;;;;1.55;1.10;;;;;;;;;;5094788;28;20060;-90
2022/12/28 11:25:58;;;;;;;2.28;1.55;;;;;;;;;;5094827;28;20040;-90
2022/12/28 11:28:25;;;;;;;2.88;1.02;;;;;;;;;;5095527;28;20047;-88
2022/12/28 11:30:57;;;;;;;1.67;0.90;;;;;;;;;;5094721;28;20055;-91
2022/12/28 11:33:26;;;;;;;1.50;1.40;;;;;;;;;;5094740;28;20044;-93
2022/12/28 11:35:55;;;;;;;1.10;1.00;;;;;;;;;;5094474;28;20058;-89
2022/12/28 11:38:47;;;;;;;2.25;1.25;;;;;;;;;;5093705;28;20059;-89
2022/12/28 11:41:29;;;;;;;1.25;1.13;;;;;;;;;;5094322;28;20048;-90
2022/12/28 11:44:01;;;;;;;1.10;0.90;;;;;;;;;;5094654;28;20044;-88
2022/12/28 11:46:35;;;;;;;2.97;1.15;;;;;;;;;;5094954;28;20510;-88
2022/12/28 11:49:21;;;;;;;1.85;1.17;;;;;;;;;;5094103;28;20130;-90
2022/12/28 11:52:08;;;;;;;2.05;1.42;;;;;;;;;;5094026;28;20058;-88
2022/12/28 11:54:37;;;;;;;0.98;0.98;;;;;;;;;;5093899;28;20131;-89
2022/12/28 11:57:04;;;;;;;1.98;1.30;;;;;;;;;;5093219;28;20062;-87
2022/12/28 11:59:32;;;;;;;3.42;1.27;;;;;;;;;;5092948;28;20396;-87
2022/12/28 12:02:01;;;;;;;2.17;1.30;;;;;;;;;;5092748;28;20052;-88
2022/12/28 12:04:31;;;;;;;2.35;1.23;;;;;;;;;;5093766;28;20044;-88
2022/12/28 12:07:00;;;;;;;3.00;1.30;;;;;;;;;;5093871;28;20077;-89
2022/12/28 12:09:32;;;;;;;3.22;1.15;;;;;;;;;;5091729;28;20062;-89
2022/12/28 12:12:02;;;;;;;1.90;1.38;;;;;;;;;;5089619;28;20043;-89
2022/12/28 12:14:32;;;;;;;3.72;2.08;;;;;;;;;;5092281;28;20044;-90
2022/12/28 12:17:02;;;;;;;2.00;1.00;;;;;;;;;;5092070;28;20139;-87
2022/12/28 12:19:31;;;;;;;2.67;1.20;;;;;;;;;;5092347;28;20050;-88
2022/12/28 12:22:06;;;;;;;3.30;1.40;;;;;;;;;;5092192;28;20052;-87
2022/12/28 12:24:37;;;;;;;2.45;1.25;;;;;;;;;;5089732;28;20056;-88
2022/12/28 12:27:12;;;;;;;1.67;1.45;;;;;;;;;;5092245;28;20044;-89
2022/12/28 12:29:41;;;;;;;4.00;1.27;;;;;;;;;;5090742;28;20047;-86
2022/12/28 12:32:17;;;;;;;1.33;0.90;;;;;;;;;;5092081;28;20060;-88
2022/12/28 12:34:46;;;;;;;5.00;1.33;;;;;;;;;;5092047;28;20443;-88
2022/12/28 12:37:32;;;;;;;1.67;1.00;;;;;;;;;;5089467;28;20595;-87
2022/12/28 12:40:07;;;;;;;2.30;1.60;;;;;;;;;;5090430;28;20142;-87
2022/12/28 12:42:54;;;;;;;3.33;1.42;;;;;;;;;;5091731;28;20143;-88
2022/12/28 12:45:47;;;;;;;4.70;1.20;;;;;;;;;;5090227;28;20044;-91
2022/12/28 12:48:44;;;;;;;1.60;1.30;;;;;;;;;;5092310;28;20500;-89
2022/12/28 12:51:37;;;;;;;2.45;1.42;;;;;;;;;;5023846;28;20054;-88
2022/12/28 12:54:23;;;;;;;4.05;1.20;;;;;;;;;;5063175;28;20044;-89
2022/12/28 12:56:56;;;;;;;1.55;1.10;;;;;;;;;;5093169;28;20416;-88
2022/12/28 12:59:42;;;;;;;2.60;1.02;;;;;;;;;;5092844;28;20503;-88
2022/12/28 13:02:09;;;;;;;1.65;1.33;;;;;;;;;;5092817;28;20048;-87
2022/12/28 13:04:39;;;;;;;2.97;1.70;;;;;;;;;;5092974;28;20507;-87
2022/12/28 13:07:14;;;;;;;3.50;1.25;;;;;;;;;;5092651;28;20135;-88
2022/12/28 13:09:42;;;;;;;3.15;1.40;;;;;;;;;;5092933;28;20131;-87
2022/12/28 13:12:13;;;;;;;5.97;1.38;;;;;;;;;;5092740;28;20439;-88
2022/12/28 13:14:43;;;;;;;1.88;1.00;;;;;;;;;;5092552;28;20059;-88
2022/12/28 13:17:16;;;;;;;2.35;1.20;;;;;;;;;;5092977;28;20058;-90
2022/12/28 13:19:44;;;;;;;1.30;1.20;;;;;;;;;;5092654;28;20044;-88
2022/12/28 13:22:31;;;;;;;1.42;0.95;;;;;;;;;;5092574;28;20510;-88
2022/12/28 13:25:00;;;;;;;3.00;1.58;;;;;;;;;;5092950;28;20131;-88
2022/12/28 13:27:33;;;;;;;2.80;1.23;;;;;;;;;;5091929;28;20054;-87
2022/12/28 13:30:01;;;;;;;3.97;1.38;;;;;;;;;;5092767;28;20489;-88
2022/12/28 13:32:30;;;;;;;2.47;1.48;;;;;;;;;;5092644;28;20040;-87
2022/12/28 13:35:16;;;;;;;2.25;1.40;;;;;;;;;;5092550;28;20052;-88
2022/12/28 13:37:43;;;;;;;4.97;1.52;;;;;;;;;;5092559;28;20083;-88
2022/12/28 13:40:11;;;;;;;1.92;1.30;;;;;;;;;;5091575;28;20078;-88
2022/12/28 13:43:10;;;;;;;2.92;1.35;;;;;;;;;;5091984;28;20492;-89
2022/12/28 13:45:38;;;;;;;2.55;1.42;;;;;;;;;;5059987;28;20063;-88
2022/12/28 13:48:07;;;;;;;3.20;1.40;;;;;;;;;;5092535;28;20048;-88
2022/12/28 13:50:36;;;;;;;2.85;1.40;;;;;;;;;;5092587;28;20097;-88
2022/12/28 13:53:09;;;;;;;2.85;1.27;;;;;;;;;;5092629;28;20052;-88
2022/12/28 13:55:39;;;;;;;1.67;1.23;;;;;;;;;;5092233;28;20384;-89
2022/12/28 13:58:09;;;;;;;2.65;1.30;;;;;;;;;;5092582;28;20136;-89
2022/12/28 14:00:36;;;;;;;2.92;1.35;;;;;;;;;;5092392;28;20055;-89
2022/12/28 14:03:06;;;;;;;3.22;1.67;;;;;;;;;;5092216;28;20131;-87
2022/12/28 14:05:33;;;;;;;1.90;1.10;;;;;;;;;;5092293;28;20127;-90
2022/12/28 14:08:01;;;;;;;2.53;1.50;;;;;;;;;;5092256;28;20056;-88
2022/12/28 14:10:29;;;;;;;5.47;1.52;;;;;;;;;;5092540;28;20143;-88
2022/12/28 14:12:56;;;;;;;1.35;1.13;;;;;;;;;;5092488;28;20139;-89
2022/12/28 14:15:26;;;;;;;4.45;1.48;;;;;;;;;;5093515;28;20048;-88
2022/12/28 14:17:53;;;;;;;5.45;1.63;;;;;;;;;;5092439;28;20071;-87
2022/12/28 14:20:21;;;;;;;4.55;1.50;;;;;;;;;;5095285;28;20075;-89
2022/12/28 14:22:48;;;;;;;1.70;1.13;;;;;;;;;;5095686;28;20344;-88
2022/12/28 14:25:16;;;;;;;2.75;1.15;;;;;;;;;;5096030;28;20052;-88
2022/12/28 14:27:46;;;;;;;4.68;1.40;;;;;;;;;;5095763;28;20139;-88
2022/12/28 14:30:21;;;;;;;5.00;1.83;;;;;;;;;;5096012;28;20506;-88
2022/12/28 14:32:48;;;;;;;2.30;1.50;;;;;;;;;;5095858;28;20075;-89
2022/12/28 14:35:18;;;;;;;2.60;1.35;;;;;;;;;;5095497;28;20067;-88
2022/12/28 14:37:45;;;;;;;3.40;1.20;;;;;;;;;;5095494;28;20055;-88
2022/12/28 14:40:32;;;;;;;2.05;1.10;;;;;;;;;;5095647;28;20132;-89
2022/12/28 14:43:03;;;;;;;3.13;1.40;;;;;;;;;;5095325;28;20047;-88
2022/12/28 14:45:35;;;;;;;2.30;1.50;;;;;;;;;;5095462;28;20071;-88
2022/12/28 14:48:25;;;;;;;2.15;1.95;;;;;;;;;;5096267;28;20055;-89
2022/12/28 14:51:00;;;;;;;3.42;2.20;;;;;;;;;;5095485;28;20499;-88
2022/12/28 14:53:27;;;;;;;2.45;1.60;;;;;;;;;;5095405;28;20044;-88
2022/12/28 14:56:15;;;;;;;2.70;1.83;;;;;;;;;;5095402;28;20051;-87
2022/12/28 14:58:48;;;;;;;6.35;2.40;;;;;;;;;;5095217;28;20070;-88
2022/12/28 15:01:18;;;;;;;3.13;1.90;;;;;;;;;;5095356;28;20048;-88
2022/12/28 15:03:59;;;;;;;5.15;1.63;;;;;;;;;;5094983;28;20075;-89
2022/12/28 15:06:27;;;;;;;4.13;1.38;;;;;;;;;;5095037;28;20572;-87
2022/12/28 15:08:55;;;;;;;3.53;1.33;;;;;;;;;;5094986;28;20079;-88
2022/12/28 15:11:23;;;;;;;3.00;1.30;;;;;;;;;;5095982;28;20051;-87
2022/12/28 15:13:50;;;;;;;2.15;1.40;;;;;;;;;;5094974;28;20489;-89
2022/12/28 15:16:19;;;;;;;2.55;1.48;;;;;;;;;;5094351;28;20052;-88
2022/12/28 15:18:46;;;;;;;3.67;1.48;;;;;;;;;;5094665;28;20055;-87
2022/12/28 15:21:16;;;;;;;1.67;1.58;;;;;;;;;;5094848;28;20059;-87
2022/12/28 15:23:44;;;;;;;2.40;1.35;;;;;;;;;;5094491;28;20079;-87
2022/12/28 15:26:12;;;;;;;5.35;1.75;;;;;;;;;;5094765;28;20134;-88
2022/12/28 15:28:39;;;;;;;3.15;1.33;;;;;;;;;;5094540;28;20534;-88
2022/12/28 15:31:07;;;;;;;2.78;1.70;;;;;;;;;;5094284;28;20044;-88